Time;durP1;ratioP1;P1;durP2;ratioP2;P2;SDS_P1;SDS_P2;PMS_P1;PMS_P2;Temp;Humidity;BMP_temperature;BMP_pressure;BME280_temperature;BME280_humidity;BME280_pressure;Samples;Min_cycle;Max_cycle;Signal;HPM_P1;HPM_P2
2023/10/14 00:02:21;;;;;;;3.80;0.65;;;23.50;38.10;;;;;;5054310;28;20074;-83
2023/10/14 00:04:52;;;;;;;0.40;0.40;;;23.60;38.20;;;;;;5054888;28;20453;-82
2023/10/14 00:07:24;;;;;;;0.57;0.50;;;23.70;38.40;;;;;;5041310;28;20412;-81
2023/10/14 00:09:57;;;;;;;0.82;0.60;;;23.90;37.80;;;;;;5054353;28;20025;-81
2023/10/14 00:12:24;;;;;;;2.60;0.80;;;24.10;37.60;;;;;;5055545;28;20420;-82
2023/10/14 00:14:53;;;;;;;2.38;0.52;;;24.30;37.30;;;;;;5055706;28;20025;-83
2023/10/14 00:17:21;;;;;;;2.58;0.70;;;24.30;37.20;;;;;;5053845;28;20376;-79
2023/10/14 00:19:54;;;;;;;2.40;0.70;;;24.50;36.80;;;;;;5054729;28;20029;-80
2023/10/14 00:22:23;;;;;;;1.15;0.60;;;24.60;36.80;;;;;;5051583;28;20032;-82
2023/10/14 00:24:52;;;;;;;1.77;0.70;;;24.60;36.60;;;;;;5054514;28;20025;-81
2023/10/14 00:27:33;;;;;;;0.70;0.70;;;24.70;36.80;;;;;;5054412;28;20469;-79
2023/10/14 00:30:32;;;;;;;0.75;0.60;;;24.90;35.30;;;;;;5054279;28;20383;-81
2023/10/14 00:32:53;;;;;;;0.70;0.50;;;25.00;35.10;;;;;;5052233;28;20436;-79
2023/10/14 00:35:20;;;;;;;2.28;0.60;;;25.00;36.10;;;;;;5052778;28;20473;-79
2023/10/14 00:37:48;;;;;;;1.73;0.50;;;25.10;35.70;;;;;;5052613;28;20045;-81
2023/10/14 00:40:22;;;;;;;1.50;0.60;;;25.20;34.90;;;;;;5052067;28;20522;-83
2023/10/14 00:42:51;;;;;;;2.58;0.50;;;25.30;34.70;;;;;;5054181;28;20219;-81
2023/10/14 00:45:21;;;;;;;5.18;0.70;;;25.30;34.50;;;;;;5053620;28;20029;-84
2023/10/14 00:47:52;;;;;;;0.73;0.50;;;25.30;33.50;;;;;;5053817;28;20090;-81
2023/10/14 00:53:05;;;;;;;0.85;0.45;;;25.60;34.50;;;;;;5043331;28;20358;-82
2023/10/14 00:58:28;;;;;;;;;;;25.80;34.50;;;;;;5043418;28;20040;-85
2023/10/14 01:00:59;;;;;;;1.02;0.50;;;25.80;34.20;;;;;;5034835;28;20376;-81
2023/10/14 01:03:31;;;;;;;1.35;0.38;;;25.80;33.20;;;;;;5045277;28;20032;-82
2023/10/14 01:06:15;;;;;;;1.75;0.52;;;25.80;33.10;;;;;;5052311;28;20029;-80
2023/10/14 01:08:43;;;;;;;0.30;0.30;;;25.80;32.60;;;;;;5053543;28;20070;-81
2023/10/14 01:11:11;;;;;;;2.50;0.57;;;25.80;32.90;;;;;;5053330;28;20074;-80
2023/10/14 01:13:38;;;;;;;2.50;0.70;;;25.80;33.30;;;;;;5052296;28;20029;-80
2023/10/14 01:16:08;;;;;;;0.40;0.40;;;25.90;34.00;;;;;;5052356;28;20384;-84
2023/10/14 01:18:39;;;;;;;0.82;0.60;;;25.90;33.10;;;;;;5053404;28;20499;-80
2023/10/14 01:21:08;;;;;;;1.65;0.40;;;25.90;32.80;;;;;;5053136;28;20476;-82
2023/10/14 01:23:38;;;;;;;0.50;0.50;;;26.00;33.00;;;;;;5052013;28;20029;-85
2023/10/14 01:26:06;;;;;;;0.40;0.40;;;26.10;32.30;;;;;;5052159;28;20024;-82
2023/10/14 01:28:33;;;;;;;1.13;0.70;;;26.10;32.80;;;;;;5053342;28;20027;-83
2023/10/14 01:31:32;;;;;;;1.38;0.50;;;26.30;33.00;;;;;;5053211;28;20476;-80
2023/10/14 01:34:04;;;;;;;0.70;0.50;;;26.30;32.10;;;;;;5053264;28;20036;-81
2023/10/14 01:36:41;;;;;;;0.55;0.50;;;26.30;32.00;;;;;;5053059;28;20016;-83
2023/10/14 01:39:20;;;;;;;1.08;0.60;;;26.40;31.90;;;;;;5051309;28;20190;-82
2023/10/14 01:41:47;;;;;;;3.47;0.60;;;26.40;32.40;;;;;;5033905;28;20037;-81
2023/10/14 01:44:21;;;;;;;0.73;0.60;;;26.50;32.00;;;;;;5033258;28;20104;-81
2023/10/14 01:46:54;;;;;;;1.15;0.50;;;26.60;32.00;;;;;;5033218;28;20064;-81
2023/10/14 01:49:23;;;;;;;2.47;0.80;;;26.70;32.00;;;;;;5051293;28;20032;-80
2023/10/14 01:51:50;;;;;;;1.15;0.65;;;26.80;32.30;;;;;;5048998;28;20060;-82
2023/10/14 01:54:18;;;;;;;4.47;0.90;;;26.80;32.30;;;;;;5052474;28;20528;-80
2023/10/14 01:56:46;;;;;;;1.45;0.68;;;26.90;32.00;;;;;;5051781;28;20037;-81
2023/10/14 01:59:16;;;;;;;4.10;0.90;;;26.80;31.90;;;;;;5050858;28;20032;-82
2023/10/14 02:01:43;;;;;;;0.80;0.80;;;26.90;32.40;;;;;;5032797;28;20034;-80
2023/10/14 02:04:15;;;;;;;2.05;0.90;;;27.00;32.60;;;;;;5032742;28;20026;-83
2023/10/14 02:06:46;;;;;;;1.30;1.20;;;27.00;32.30;;;;;;5032747;28;20108;-80
2023/10/14 02:09:17;;;;;;;4.20;1.20;;;27.00;32.20;;;;;;5045068;28;20025;-80
2023/10/14 02:11:47;;;;;;;1.00;0.82;;;27.00;32.30;;;;;;5051855;28;20036;-81
2023/10/14 02:14:18;;;;;;;1.00;0.90;;;27.10;32.30;;;;;;5052592;28;20028;-81
2023/10/14 02:16:46;;;;;;;1.30;0.82;;;27.20;32.70;;;;;;5052579;28;20071;-80
2023/10/14 02:19:18;;;;;;;3.35;0.80;;;27.20;32.30;;;;;;5067822;28;20521;-80
2023/10/14 02:21:49;;;;;;;2.80;1.08;;;27.10;32.00;;;;;;5050446;28;20114;-81
2023/10/14 02:24:18;;;;;;;2.97;0.90;;;27.00;33.20;;;;;;5051739;28;20027;-81
2023/10/14 02:26:48;;;;;;;3.42;0.90;;;27.10;32.30;;;;;;5052566;28;20541;-84
2023/10/14 02:29:17;;;;;;;1.83;0.70;;;27.20;32.80;;;;;;5052364;28;20044;-84
2023/10/14 02:31:45;;;;;;;2.72;0.90;;;27.30;32.80;;;;;;5052626;28;20047;-81
2023/10/14 02:34:15;;;;;;;2.80;0.90;;;27.30;32.80;;;;;;5050748;28;20028;-81
2023/10/14 02:36:48;;;;;;;1.30;1.00;;;27.40;32.90;;;;;;5043349;28;20077;-81
2023/10/14 02:39:16;;;;;;;1.85;0.90;;;27.40;31.90;;;;;;5040075;28;20535;-81
2023/10/14 02:41:59;;;;;;;0.80;0.80;;;27.30;32.50;;;;;;5031087;28;20033;-79
2023/10/14 02:44:28;;;;;;;1.27;0.80;;;27.30;31.90;;;;;;5033364;28;20028;-79
2023/10/14 02:47:01;;;;;;;2.15;1.02;;;27.40;32.80;;;;;;5060418;28;20040;-76
2023/10/14 02:49:34;;;;;;;2.20;0.95;;;27.50;32.70;;;;;;5079179;28;20024;-77
2023/10/14 02:52:12;;;;;;;1.65;1.17;;;27.60;33.00;;;;;;5068068;28;20036;-77
2023/10/14 02:54:45;;;;;;;1.40;0.90;;;27.70;31.90;;;;;;5052686;28;20072;-81
2023/10/14 02:57:14;;;;;;;2.25;1.25;;;27.80;31.30;;;;;;5032760;28;20459;-81
2023/10/14 02:59:43;;;;;;;2.17;1.10;;;27.90;31.50;;;;;;5059519;28;20091;-80
2023/10/14 03:02:39;;;;;;;1.08;0.95;;;27.90;31.30;;;;;;5052200;28;20147;-81
2023/10/14 03:07:48;;;;;;;1.08;0.88;;;28.00;30.80;;;;;;5042182;28;20032;-87
2023/10/14 03:10:27;;;;;;;4.38;1.15;;;28.00;30.70;;;;;;5046337;28;20033;-82
2023/10/14 03:12:57;;;;;;;0.98;0.88;;;28.10;29.70;;;;;;5053775;28;20029;-81
2023/10/14 03:15:27;;;;;;;2.33;2.00;;;28.20;30.40;;;;;;5056280;28;20029;-80
2023/10/14 03:17:58;;;;;;;3.10;2.53;;;28.40;30.80;;;;;;5064790;28;20039;-82
2023/10/14 03:22:59;;;;;;;5.07;1.90;;;28.70;30.20;;;;;;5045407;28;20380;-81
2023/10/14 03:25:27;;;;;;;2.10;1.00;;;28.80;30.10;;;;;;5053968;28;20056;-80
2023/10/14 03:28:06;;;;;;;1.30;1.15;;;28.80;29.30;;;;;;5054283;28;20033;-82
2023/10/14 03:30:38;;;;;;;2.78;1.13;;;28.80;29.70;;;;;;5047806;28;20456;-82
2023/10/14 03:33:09;;;;;;;1.83;1.55;;;29.00;29.80;;;;;;5038868;28;20601;-80
2023/10/14 03:35:38;;;;;;;1.20;1.10;;;29.10;29.30;;;;;;5043639;28;20380;-80
2023/10/14 03:38:55;;;;;;;4.00;1.42;;;29.20;28.50;;;;;;5043510;28;20037;-81
2023/10/14 03:41:10;;;;;;;1.02;0.82;;;29.00;29.00;;;;;;5043477;28;20041;-81
2023/10/14 03:46:32;;;;;;;1.90;1.00;;;29.30;29.10;;;;;;5054258;28;20025;-85
2023/10/14 03:49:06;;;;;;;2.83;1.60;;;29.50;27.90;;;;;;5046875;28;20115;-84
2023/10/14 03:51:35;;;;;;;1.95;1.20;;;29.60;28.00;;;;;;5065929;28;20486;-85
2023/10/14 03:54:08;;;;;;;1.30;1.13;;;29.70;27.00;;;;;;5057445;28;20059;-80
2023/10/14 03:56:38;;;;;;;1.77;1.02;;;29.70;27.50;;;;;;5057256;28;20033;-81
2023/10/14 03:59:06;;;;;;;3.38;1.10;;;29.80;27.50;;;;;;5054947;28;20056;-84
2023/10/14 04:04:23;;;;;;;1.42;0.82;;;30.10;26.70;;;;;;5053518;28;20025;-80
2023/10/14 04:07:13;;;;;;;1.30;1.00;;;30.10;26.40;;;;;;5058645;28;20039;-81
2023/10/14 04:09:58;;;;;;;2.15;1.10;;;30.20;26.50;;;;;;5050769;28;20329;-85
2023/10/14 04:12:40;;;;;;;1.27;0.90;;;30.20;26.00;;;;;;5056982;28;20029;-84
2023/10/14 04:17:40;;;;;;;1.27;1.08;;;30.30;25.50;;;;;;5034836;28;20033;-81
2023/10/14 04:22:41;;;;;;;1.48;0.90;;;30.40;25.40;;;;;;5053277;28;20059;-80
2023/10/14 04:30:32;;;;;;;2.95;1.20;;;30.30;24.70;;;;;;5036517;28;20021;-85
2023/10/14 04:35:36;;;;;;;1.33;1.00;;;30.20;25.00;;;;;;5035497;28;20396;-85
2023/10/14 04:38:17;;;;;;;1.65;0.77;;;30.30;24.30;;;;;;5049803;28;20123;-85
2023/10/14 04:40:53;;;;;;;1.00;1.00;;;30.30;24.20;;;;;;5056271;28;20040;-82
2023/10/14 04:44:11;;;;;;;1.40;1.10;;;30.20;23.70;;;;;;5048972;28;20025;-86
2023/10/14 04:48:39;;;;;;;1.90;1.00;;;30.30;24.50;;;;;;5054049;28;20112;-84
2023/10/14 04:51:15;;;;;;;2.67;1.10;;;30.30;24.00;;;;;;5053852;28;20100;-85
2023/10/14 04:53:46;;;;;;;1.35;0.90;;;30.30;25.00;;;;;;5043237;28;20029;-86
2023/10/14 04:56:32;;;;;;;1.98;0.90;;;30.30;24.50;;;;;;5050540;28;20029;-83
2023/10/14 04:59:08;;;;;;;1.13;1.02;;;30.30;24.30;;;;;;5062236;28;20024;-85
2023/10/14 05:01:35;;;;;;;3.38;1.00;;;30.30;24.00;;;;;;5073940;28;20041;-83
2023/10/14 05:04:08;;;;;;;2.13;1.10;;;30.30;23.90;;;;;;5067759;28;20025;-81
2023/10/14 05:06:41;;;;;;;2.30;1.02;;;30.30;23.20;;;;;;5042772;28;20036;-85
2023/10/14 05:09:27;;;;;;;2.60;1.08;;;30.20;24.10;;;;;;5060085;28;20398;-82
2023/10/14 05:11:54;;;;;;;2.70;1.20;;;30.20;23.70;;;;;;5073941;28;20021;-80
2023/10/14 05:14:34;;;;;;;1.00;0.90;;;30.20;24.40;;;;;;5071344;28;20498;-80
2023/10/14 05:17:14;;;;;;;1.25;1.00;;;30.10;24.40;;;;;;5063222;28;20028;-81
2023/10/14 05:19:42;;;;;;;1.23;1.13;;;30.10;24.00;;;;;;5052751;28;20052;-81
2023/10/14 05:22:18;;;;;;;2.35;1.15;;;30.00;24.40;;;;;;5050312;28;20476;-83
2023/10/14 05:24:49;;;;;;;1.23;1.02;;;30.10;24.50;;;;;;5054632;28;20033;-82
2023/10/14 05:27:17;;;;;;;2.85;1.40;;;30.10;24.20;;;;;;5049683;28;20036;-82
2023/10/14 05:29:51;;;;;;;3.60;1.60;;;30.00;24.70;;;;;;5050587;28;20033;-82
2023/10/14 05:32:24;;;;;;;1.55;1.10;;;29.80;24.10;;;;;;5056958;28;20035;-81
2023/10/14 05:34:52;;;;;;;1.42;1.30;;;29.70;24.90;;;;;;5045443;28;20025;-80
2023/10/14 05:37:21;;;;;;;1.45;1.35;;;29.60;24.90;;;;;;5032787;28;20041;-82
2023/10/14 05:39:50;;;;;;;2.20;1.65;;;29.80;25.40;;;;;;5033514;28;20021;-83
2023/10/14 05:42:21;;;;;;;1.08;1.08;;;29.80;24.50;;;;;;5033881;28;20063;-82
2023/10/14 05:44:49;;;;;;;2.30;1.60;;;29.70;24.50;;;;;;5033379;28;20026;-82
2023/10/14 05:47:20;;;;;;;2.75;1.40;;;29.60;24.80;;;;;;5046835;28;20495;-81
2023/10/14 05:49:52;;;;;;;1.88;1.75;;;29.50;24.20;;;;;;5065224;28;20107;-84
2023/10/14 05:52:26;;;;;;;3.00;1.60;;;29.40;25.30;;;;;;5072905;28;20025;-84
2023/10/14 05:54:55;;;;;;;3.80;1.40;;;29.30;24.90;;;;;;5067522;28;20468;-84
2023/10/14 05:57:22;;;;;;;1.55;1.38;;;29.20;25.50;;;;;;5049612;28;20040;-80
2023/10/14 05:59:50;;;;;;;1.33;1.23;;;28.90;25.40;;;;;;5044779;28;20045;-81
2023/10/14 06:02:18;;;;;;;1.40;1.30;;;28.80;25.70;;;;;;5050806;28;20488;-82
2023/10/14 06:04:50;;;;;;;1.48;1.20;;;28.70;24.50;;;;;;5067480;28;20036;-80
2023/10/14 06:07:20;;;;;;;1.17;1.10;;;28.60;25.30;;;;;;5059006;28;20032;-82
2023/10/14 06:09:47;;;;;;;1.55;1.00;;;28.40;25.30;;;;;;5068245;28;20531;-82
2023/10/14 06:12:16;;;;;;;1.10;1.00;;;28.30;25.70;;;;;;5047383;28;20033;-80
2023/10/14 06:14:46;;;;;;;0.90;0.90;;;28.20;25.90;;;;;;5052204;28;20503;-80
2023/10/14 06:17:14;;;;;;;1.33;1.10;;;28.00;26.50;;;;;;5055507;28;20074;-79
2023/10/14 06:19:42;;;;;;;2.10;1.75;;;28.00;26.80;;;;;;5060425;28;20059;-82
2023/10/14 06:22:14;;;;;;;3.03;2.08;;;27.90;26.70;;;;;;5059846;28;20045;-80
2023/10/14 06:24:44;;;;;;;5.25;3.85;;;27.90;26.80;;;;;;5063579;28;20048;-82
2023/10/14 06:27:20;;;;;;;5.50;3.60;;;27.80;27.00;;;;;;5074729;28;20016;-82
2023/10/14 06:29:48;;;;;;;5.32;3.92;;;27.80;27.30;;;;;;5060794;28;20396;-82
2023/10/14 06:32:18;;;;;;;8.68;5.78;;;27.80;27.10;;;;;;5051726;28;20399;-81
2023/10/14 06:34:47;;;;;;;5.38;3.90;;;27.80;27.10;;;;;;5068289;28;20021;-81
2023/10/14 06:37:14;;;;;;;3.20;2.22;;;27.60;26.90;;;;;;5053122;28;20056;-81
2023/10/14 06:39:45;;;;;;;4.03;3.53;;;27.60;27.70;;;;;;5041759;28;20052;-80
2023/10/14 06:42:12;;;;;;;4.30;2.58;;;27.50;27.20;;;;;;5043031;28;20029;-81
2023/10/14 06:44:45;;;;;;;3.85;1.80;;;27.40;27.70;;;;;;5036570;28;20034;-81
2023/10/14 06:47:12;;;;;;;2.53;1.52;;;27.40;27.50;;;;;;5044801;28;20029;-82
2023/10/14 06:49:42;;;;;;;1.75;1.27;;;27.30;27.90;;;;;;5036478;28;20432;-80
2023/10/14 06:52:14;;;;;;;1.15;1.05;;;27.30;28.10;;;;;;5043609;28;20032;-81
2023/10/14 06:54:41;;;;;;;1.38;1.15;;;27.30;28.30;;;;;;5052586;28;20132;-81
2023/10/14 06:57:09;;;;;;;1.30;1.20;;;27.20;28.70;;;;;;5067292;28;20035;-81
2023/10/14 06:59:39;;;;;;;1.33;1.05;;;27.10;28.10;;;;;;5054444;28;20384;-83
2023/10/14 07:02:07;;;;;;;2.35;1.10;;;27.00;28.50;;;;;;5054150;28;20090;-82
2023/10/14 07:04:37;;;;;;;3.63;1.60;;;27.00;28.30;;;;;;5049595;28;20532;-81
2023/10/14 07:07:08;;;;;;;2.78;1.17;;;27.00;29.60;;;;;;5045941;28;20029;-81
2023/10/14 07:09:37;;;;;;;1.90;1.08;;;26.90;29.30;;;;;;5055999;28;20032;-80
2023/10/14 07:12:22;;;;;;;1.55;1.00;;;26.80;29.00;;;;;;5055757;28;20056;-80
2023/10/14 07:14:50;;;;;;;2.65;1.30;;;26.80;29.50;;;;;;5047653;28;20154;-81
2023/10/14 07:17:25;;;;;;;1.45;1.00;;;26.70;29.70;;;;;;5054792;28;20040;-80
2023/10/14 07:19:52;;;;;;;2.00;1.08;;;26.60;29.90;;;;;;5055782;28;20025;-83
2023/10/14 07:22:22;;;;;;;4.30;1.10;;;26.60;29.90;;;;;;5052577;28;20049;-83
2023/10/14 07:24:53;;;;;;;2.80;1.10;;;26.60;30.30;;;;;;5053744;28;20032;-82
2023/10/14 07:27:24;;;;;;;3.05;1.20;;;26.50;30.10;;;;;;5043836;28;20033;-83
2023/10/14 07:29:52;;;;;;;2.53;1.40;;;26.40;30.70;;;;;;5060196;28;20067;-83
2023/10/14 07:32:20;;;;;;;1.40;1.10;;;26.40;30.60;;;;;;5071074;28;20179;-82
2023/10/14 07:34:50;;;;;;;1.38;1.27;;;26.30;31.00;;;;;;5052613;28;20017;-82
2023/10/14 07:37:20;;;;;;;3.45;1.27;;;26.30;30.70;;;;;;5046461;28;20079;-83
2023/10/14 07:39:52;;;;;;;1.60;1.20;;;26.30;30.70;;;;;;5062278;28;20049;-82
2023/10/14 07:42:21;;;;;;;2.00;1.38;;;26.30;31.50;;;;;;5052312;28;20029;-83
2023/10/14 07:44:48;;;;;;;5.05;1.65;;;26.20;31.40;;;;;;5050885;28;20025;-81
2023/10/14 07:47:16;;;;;;;2.13;1.70;;;26.20;31.50;;;;;;5036198;28;20037;-84
2023/10/14 07:49:44;;;;;;;1.83;1.67;;;26.20;30.90;;;;;;5054311;28;20024;-82
2023/10/14 07:52:14;;;;;;;2.35;1.80;;;26.10;31.50;;;;;;5054946;28;20016;-82
2023/10/14 07:54:42;;;;;;;3.65;2.03;;;26.00;31.70;;;;;;5056335;28;20032;-82
2023/10/14 07:57:12;;;;;;;1.80;1.65;;;26.00;31.60;;;;;;5051075;28;20029;-82
2023/10/14 07:59:41;;;;;;;3.00;1.87;;;26.00;33.70;;;;;;5049139;28;20017;-82
2023/10/14 08:02:18;;;;;;;2.75;1.67;;;25.90;32.90;;;;;;5034650;28;20240;-82
2023/10/14 08:04:46;;;;;;;1.98;1.60;;;25.90;32.70;;;;;;5056446;28;20385;-82
2023/10/14 08:07:14;;;;;;;2.63;1.80;;;25.90;32.50;;;;;;5066239;28;20479;-82
2023/10/14 08:09:41;;;;;;;2.47;1.65;;;25.80;34.80;;;;;;5066134;28;20017;-80
2023/10/14 08:12:09;;;;;;;2.72;1.63;;;25.80;33.50;;;;;;5047487;28;20032;-81
2023/10/14 08:14:36;;;;;;;3.20;2.38;;;25.70;33.50;;;;;;5043004;28;20037;-81
2023/10/14 08:17:11;;;;;;;3.17;1.73;;;25.60;33.40;;;;;;5037610;28;20055;-82
2023/10/14 08:19:40;;;;;;;2.45;2.13;;;25.50;34.20;;;;;;5049386;28;20380;-82
2023/10/14 08:22:08;;;;;;;2.40;1.88;;;25.50;33.90;;;;;;5051965;28;20400;-82
2023/10/14 08:24:38;;;;;;;8.07;3.80;;;25.40;33.70;;;;;;5052966;28;20469;-82
2023/10/14 08:27:11;;;;;;;5.60;3.53;;;25.30;34.10;;;;;;5054080;28;20036;-81
2023/10/14 08:29:41;;;;;;;5.93;3.95;;;25.30;34.90;;;;;;5050422;28;20580;-82
2023/10/14 08:32:09;;;;;;;4.20;3.78;;;25.20;34.40;;;;;;5034307;28;20032;-81
2023/10/14 08:34:37;;;;;;;5.75;3.97;;;25.10;35.70;;;;;;5034902;28;20037;-82
2023/10/14 08:37:04;;;;;;;5.60;3.92;;;25.00;35.30;;;;;;5052731;28;20033;-82
2023/10/14 08:39:32;;;;;;;6.05;4.15;;;25.00;34.40;;;;;;5035532;28;20132;-83
2023/10/14 08:42:06;;;;;;;5.20;3.53;;;25.00;33.80;;;;;;5032822;28;20513;-81
2023/10/14 08:44:35;;;;;;;4.22;3.60;;;24.90;33.80;;;;;;5034210;28;20051;-81
2023/10/14 08:47:13;;;;;;;4.53;2.88;;;24.90;32.90;;;;;;5043348;28;20111;-80
2023/10/14 08:49:44;;;;;;;5.90;3.35;;;24.90;33.50;;;;;;5052805;28;20063;-83
2023/10/14 08:52:16;;;;;;;7.80;4.60;;;24.80;33.80;;;;;;5054027;28;20085;-81
2023/10/14 08:54:44;;;;;;;6.45;4.68;;;24.80;34.30;;;;;;5054273;28;20020;-83
2023/10/14 08:57:11;;;;;;;10.43;7.93;;;24.80;33.70;;;;;;5034520;28;20029;-82
2023/10/14 08:59:40;;;;;;;8.77;6.90;;;24.80;33.40;;;;;;5036894;28;20440;-84
2023/10/14 09:02:12;;;;;;;6.50;5.13;;;24.70;33.60;;;;;;5033793;28;20072;-82
2023/10/14 09:04:41;;;;;;;4.75;3.80;;;24.70;33.80;;;;;;5034351;28;20025;-81
2023/10/14 09:07:14;;;;;;;4.65;3.17;;;24.70;33.70;;;;;;5048639;28;20044;-84
2023/10/14 09:09:42;;;;;;;4.35;3.55;;;24.70;33.90;;;;;;5036476;28;20060;-84
2023/10/14 09:12:12;;;;;;;4.88;2.50;;;24.60;34.60;;;;;;5044722;28;20485;-83
2023/10/14 09:14:40;;;;;;;4.80;2.72;;;24.60;34.50;;;;;;5051332;28;20068;-83
2023/10/14 09:17:09;;;;;;;6.15;3.10;;;24.60;34.60;;;;;;5049619;28;20608;-84
2023/10/14 09:19:55;;;;;;;3.72;2.85;;;24.50;34.60;;;;;;5053728;28;20494;-84
2023/10/14 09:22:28;;;;;;;4.55;2.97;;;24.50;34.90;;;;;;5052241;28;20399;-82
2023/10/14 09:24:59;;;;;;;4.47;3.25;;;24.40;35.80;;;;;;5053613;28;20029;-82
2023/10/14 09:27:30;;;;;;;6.50;3.50;;;24.40;35.70;;;;;;5051913;28;20036;-83
2023/10/14 09:29:57;;;;;;;7.22;4.43;;;24.30;35.90;;;;;;5053446;28;20013;-83
2023/10/14 09:32:25;;;;;;;7.88;5.78;;;24.30;37.20;;;;;;5046260;28;20021;-81
2023/10/14 09:34:55;;;;;;;6.63;4.15;;;24.30;36.50;;;;;;5053162;28;20472;-83
2023/10/14 09:37:23;;;;;;;5.50;3.97;;;24.20;39.40;;;;;;5051673;28;20074;-82
2023/10/14 09:39:57;;;;;;;4.63;3.65;;;24.20;39.60;;;;;;5050705;28;20049;-81
2023/10/14 09:42:26;;;;;;;5.68;2.85;;;24.20;39.10;;;;;;5053248;28;20028;-82
2023/10/14 09:44:55;;;;;;;4.90;2.42;;;24.20;37.30;;;;;;5051903;28;20033;-81
2023/10/14 09:47:25;;;;;;;2.97;2.20;;;24.00;36.90;;;;;;5053088;28;20028;-82
2023/10/14 09:49:54;;;;;;;3.88;1.77;;;24.00;36.60;;;;;;5053500;28;20029;-81
2023/10/14 09:52:22;;;;;;;2.72;2.30;;;24.00;36.00;;;;;;5057718;28;20045;-78
2023/10/14 09:54:52;;;;;;;2.92;2.20;;;23.90;36.60;;;;;;5062793;28;20116;-78
2023/10/14 09:57:25;;;;;;;5.72;2.53;;;23.90;37.10;;;;;;5056981;28;20065;-81
2023/10/14 09:59:55;;;;;;;3.78;2.20;;;23.80;36.70;;;;;;5052378;28;20028;-83
2023/10/14 10:02:23;;;;;;;3.85;2.47;;;23.80;36.60;;;;;;5052740;28;20029;-83
2023/10/14 10:04:53;;;;;;;3.53;2.10;;;23.80;36.90;;;;;;5052788;28;20052;-82
2023/10/14 10:08:11;;;;;;;1.73;1.60;;;23.80;35.70;;;;;;5051451;28;20108;-83
2023/10/14 10:10:41;;;;;;;3.10;2.50;;;23.70;34.60;;;;;;5052696;28;20024;-82
2023/10/14 10:13:12;;;;;;;2.75;2.22;;;23.70;35.80;;;;;;5051255;28;20036;-82
2023/10/14 10:15:40;;;;;;;3.53;2.58;;;23.70;36.50;;;;;;5052670;28;20025;-82
2023/10/14 10:18:16;;;;;;;2.97;2.30;;;23.60;36.60;;;;;;5052756;28;20029;-83
2023/10/14 10:20:56;;;;;;;2.35;2.10;;;23.70;37.80;;;;;;5055121;28;20060;-83
2023/10/14 10:23:24;;;;;;;2.45;2.08;;;23.60;38.50;;;;;;5056804;28;20025;-82
2023/10/14 10:25:53;;;;;;;2.63;1.95;;;23.60;38.10;;;;;;5055908;28;20021;-82
2023/10/14 10:28:27;;;;;;;5.00;2.15;;;23.60;37.50;;;;;;5056877;28;20477;-82
2023/10/14 10:30:57;;;;;;;3.45;2.03;;;23.60;38.50;;;;;;5057013;28;20083;-82
2023/10/14 10:34:00;;;;;;;2.97;1.85;;;23.60;38.00;;;;;;5056986;28;20052;-81
2023/10/14 10:36:32;;;;;;;2.33;1.95;;;23.60;38.50;;;;;;5056156;28;20439;-82
2023/10/14 10:39:25;;;;;;;2.20;1.70;;;23.60;40.90;;;;;;5056514;28;20079;-83
2023/10/14 10:41:53;;;;;;;2.22;1.92;;;23.60;40.50;;;;;;5055210;28;20155;-81
2023/10/14 10:44:21;;;;;;;1.73;1.40;;;23.50;40.40;;;;;;5037780;28;20022;-83
2023/10/14 10:46:52;;;;;;;2.15;1.45;;;23.50;38.90;;;;;;5041237;28;20029;-83
2023/10/14 10:49:56;;;;;;;1.50;1.38;;;23.50;39.80;;;;;;5039516;28;20029;-83
2023/10/14 10:52:25;;;;;;;1.75;1.40;;;23.30;37.00;;;;;;5036945;28;20026;-83
2023/10/14 10:54:53;;;;;;;1.88;1.40;;;23.30;38.20;;;;;;5055549;28;20384;-82
2023/10/14 10:57:21;;;;;;;2.75;1.10;;;23.30;39.50;;;;;;5071910;28;20021;-82
2023/10/14 10:59:49;;;;;;;2.95;1.00;;;23.30;38.70;;;;;;5056437;28;20035;-82
2023/10/14 11:02:21;;;;;;;1.45;1.10;;;23.10;36.30;;;;;;5050862;28;20034;-81
2023/10/14 11:04:51;;;;;;;1.73;1.40;;;23.10;38.30;;;;;;5036352;28;20032;-82
2023/10/14 11:07:22;;;;;;;2.45;1.17;;;23.20;40.20;;;;;;5037182;28;20468;-82
2023/10/14 11:09:52;;;;;;;1.20;1.00;;;23.10;39.50;;;;;;5036627;28;20072;-83
2023/10/14 11:12:19;;;;;;;1.80;1.20;;;23.10;39.30;;;;;;5036430;28;20033;-82
2023/10/14 11:14:49;;;;;;;2.03;1.00;;;23.00;37.80;;;;;;5036219;28;20014;-82
2023/10/14 11:17:16;;;;;;;1.85;0.90;;;23.00;38.00;;;;;;5035463;28;20029;-81
2023/10/14 11:19:44;;;;;;;1.33;1.20;;;22.90;37.90;;;;;;5041451;28;20439;-82
2023/10/14 11:22:11;;;;;;;2.42;1.17;;;23.00;40.10;;;;;;5055772;28;20056;-82
2023/10/14 11:24:42;;;;;;;2.45;1.50;;;22.90;40.70;;;;;;5055682;28;20045;-82
2023/10/14 11:27:09;;;;;;;1.42;1.20;;;22.90;39.10;;;;;;5055369;28;20029;-82
2023/10/14 11:29:37;;;;;;;1.48;1.27;;;22.90;41.30;;;;;;5055451;28;20070;-82
2023/10/14 11:32:05;;;;;;;2.08;1.48;;;22.80;40.30;;;;;;5054513;28;20496;-81
2023/10/14 11:34:42;;;;;;;4.20;1.60;;;22.80;40.40;;;;;;5055162;28;20045;-82
2023/10/14 11:37:16;;;;;;;6.53;2.10;;;22.80;39.60;;;;;;5049973;28;20025;-81
2023/10/14 11:39:48;;;;;;;1.75;1.40;;;22.70;39.50;;;;;;5048055;28;20056;-81
2023/10/14 11:42:15;;;;;;;6.38;2.03;;;22.70;38.80;;;;;;5054109;28;20512;-81
2023/10/14 11:44:50;;;;;;;2.47;1.52;;;22.70;40.10;;;;;;5046244;28;20036;-82
2023/10/14 11:47:18;;;;;;;4.75;1.73;;;22.70;39.90;;;;;;5058768;28;20028;-82
2023/10/14 11:49:49;;;;;;;3.13;0.93;;;22.70;41.20;;;;;;5061107;28;20056;-82
2023/10/14 11:52:18;;;;;;;1.60;1.27;;;22.60;39.00;;;;;;5046772;28;20032;-80
2023/10/14 11:54:46;;;;;;;1.25;1.15;;;22.50;40.00;;;;;;5047425;28;20021;-80
2023/10/14 11:57:13;;;;;;;1.92;1.02;;;22.40;38.50;;;;;;5054859;28;20027;-81
2023/10/14 11:59:41;;;;;;;2.25;1.02;;;22.40;39.20;;;;;;5046141;28;20401;-81
2023/10/14 12:02:09;;;;;;;2.20;0.80;;;22.30;39.30;;;;;;5043876;28;20116;-83
2023/10/14 12:04:38;;;;;;;1.25;0.90;;;22.30;38.30;;;;;;5048000;28;20017;-81
2023/10/14 12:07:06;;;;;;;3.13;0.88;;;22.20;38.30;;;;;;5035590;28;20037;-82
2023/10/14 12:09:33;;;;;;;0.80;0.70;;;22.20;38.60;;;;;;5051089;28;20029;-82
2023/10/14 12:12:03;;;;;;;2.60;0.80;;;22.20;38.40;;;;;;5053904;28;20025;-81
2023/10/14 12:14:30;;;;;;;3.08;1.05;;;22.10;38.50;;;;;;5039725;28;20492;-82
2023/10/14 12:17:04;;;;;;;1.95;1.02;;;22.00;38.50;;;;;;5050046;28;20024;-81
2023/10/14 12:19:32;;;;;;;3.80;1.00;;;21.90;38.80;;;;;;5060162;28;20064;-81
2023/10/14 12:22:00;;;;;;;1.65;0.82;;;21.90;38.90;;;;;;5050429;28;20056;-81
2023/10/14 12:24:32;;;;;;;1.90;0.63;;;21.80;39.20;;;;;;5054538;28;20032;-82
2023/10/14 12:26:59;;;;;;;0.68;0.68;;;21.80;39.50;;;;;;5053302;28;20406;-82
2023/10/14 12:29:26;;;;;;;2.22;0.65;;;21.80;39.90;;;;;;5036468;28;20522;-80
2023/10/14 12:31:58;;;;;;;0.75;0.65;;;21.70;40.10;;;;;;5035616;28;20034;-80
2023/10/14 12:34:25;;;;;;;2.08;0.70;;;21.70;40.40;;;;;;5034748;28;20107;-81
2023/10/14 12:36:53;;;;;;;2.20;0.60;;;21.60;40.60;;;;;;5046557;28;20458;-81
2023/10/14 12:39:26;;;;;;;0.63;0.63;;;21.50;40.70;;;;;;5052125;28;20051;-81
2023/10/14 12:42:02;;;;;;;0.98;0.70;;;21.50;41.20;;;;;;5050786;28;20071;-81
2023/10/14 12:44:29;;;;;;;0.95;0.70;;;21.50;41.30;;;;;;5043447;28;20082;-81
2023/10/14 12:46:57;;;;;;;1.05;0.70;;;21.50;41.50;;;;;;5049788;28;20033;-81
2023/10/14 12:49:27;;;;;;;1.48;0.57;;;21.40;41.40;;;;;;5044486;28;20034;-81
2023/10/14 12:51:58;;;;;;;2.92;0.80;;;21.30;41.60;;;;;;5045789;28;20107;-81
2023/10/14 12:54:29;;;;;;;0.82;0.70;;;21.30;41.70;;;;;;5036976;28;20051;-81
2023/10/14 12:56:56;;;;;;;0.95;0.73;;;21.30;41.90;;;;;;5057273;28;20017;-81
2023/10/14 12:59:24;;;;;;;0.70;0.60;;;21.20;42.20;;;;;;5053538;28;20029;-81
2023/10/14 13:02:03;;;;;;;2.00;0.57;;;21.10;42.40;;;;;;5051352;28;20041;-81
2023/10/14 13:04:31;;;;;;;0.93;0.60;;;21.00;42.70;;;;;;5038699;28;20041;-80
2023/10/14 13:06:58;;;;;;;0.70;0.47;;;21.00;42.80;;;;;;5035498;28;20025;-81
2023/10/14 13:09:27;;;;;;;0.88;0.60;;;20.90;43.00;;;;;;5052363;28;20055;-81
2023/10/14 13:11:56;;;;;;;0.75;0.70;;;20.80;43.30;;;;;;5042687;28;20025;-81
2023/10/14 13:14:26;;;;;;;1.40;0.70;;;20.80;43.50;;;;;;5050382;28;20063;-81
2023/10/14 13:16:58;;;;;;;0.70;0.70;;;20.80;43.60;;;;;;5050229;28;20496;-81
2023/10/14 13:19:26;;;;;;;0.90;0.75;;;20.80;43.90;;;;;;5051317;28;20032;-81
2023/10/14 13:21:55;;;;;;;1.00;0.77;;;20.80;44.20;;;;;;5039404;28;20526;-80
2023/10/14 13:24:23;;;;;;;2.55;0.70;;;20.70;44.30;;;;;;5051566;28;20025;-82
2023/10/14 13:26:50;;;;;;;1.42;0.70;;;20.60;44.70;;;;;;5046918;28;20053;-81
2023/10/14 13:29:17;;;;;;;1.42;0.80;;;20.50;44.90;;;;;;5033097;28;20014;-81
2023/10/14 13:31:46;;;;;;;0.98;0.60;;;20.40;45.10;;;;;;5047986;28;20514;-81
2023/10/14 13:34:13;;;;;;;3.08;0.68;;;20.30;45.30;;;;;;5050678;28;20545;-80
2023/10/14 13:36:44;;;;;;;0.90;0.50;;;20.30;45.50;;;;;;5045971;28;20032;-80
2023/10/14 13:39:16;;;;;;;1.83;0.80;;;20.20;45.50;;;;;;5032840;28;20098;-81
2023/10/14 13:41:48;;;;;;;1.95;0.70;;;20.20;45.60;;;;;;5044391;28;20041;-81